East Peoria, Illinois
Current Conditions -  °F | °C
As of 1:54 AM on Sunday 21 Dec 2014 (Local Time) from KPIA Reporting Station
Overcast Overcast  
Wind Chill: 31°   Ceiling: 3300
Heat Index: 36°   Visibility: 8mi
Dew Point: 29°   Wind: 6mph
Humidity: 76%   Direction: 160°SSE
Pressure: 30.22"   Gusts: NA
Location:  40.66°N, 89.59°W
Report Text: KPIA 210754Z 16005KT 8SM SCT026 BKN033 OVC042 02/M02 A3022 RMK AO2 SLP237 T00221017
Loading
Personal Weather Stations






























Interactive Weather Map New forecast layout! Learn more

10-Day Weather Forecast

Advertisements
Track Severe Weather on mobile